createdAt,value
2018-12-13T00:01:11.351Z,16.60
2018-12-13T00:03:39.848Z,16.47
2018-12-13T00:06:09.028Z,15.83
2018-12-13T00:08:37.521Z,17.30
2018-12-13T00:11:06.003Z,20.00
2018-12-13T00:13:34.466Z,17.00
2018-12-13T00:16:02.956Z,15.43
2018-12-13T00:18:31.535Z,16.13
2018-12-13T00:21:00.098Z,15.60
2018-12-13T00:23:28.617Z,16.43
2018-12-13T00:25:57.148Z,15.80
2018-12-13T00:28:25.636Z,18.40
2018-12-13T00:30:54.224Z,17.10
2018-12-13T00:33:22.730Z,19.00
2018-12-13T00:35:51.372Z,17.77
2018-12-13T00:38:19.874Z,15.27
2018-12-13T00:40:48.330Z,16.57
2018-12-13T00:43:16.917Z,18.17
2018-12-13T00:45:45.352Z,18.30
2018-12-13T00:48:14.421Z,20.90
2018-12-13T00:50:42.931Z,18.87
2018-12-13T00:53:11.347Z,18.83
2018-12-13T00:55:39.776Z,19.00
2018-12-13T00:58:08.290Z,18.47
2018-12-13T01:00:36.850Z,19.20
2018-12-13T01:03:05.351Z,21.17
2018-12-13T01:05:34.023Z,21.27
2018-12-13T01:08:02.468Z,21.53
2018-12-13T01:10:30.963Z,23.87
2018-12-13T01:12:59.400Z,21.33
2018-12-13T01:15:32.103Z,25.43
2018-12-13T01:18:00.692Z,20.97
2018-12-13T01:20:29.203Z,24.90
2018-12-13T01:22:57.642Z,23.23
2018-12-13T01:25:26.128Z,22.27
2018-12-13T01:27:54.584Z,21.93
2018-12-13T01:30:23.087Z,24.10
2018-12-13T01:32:51.767Z,24.67
2018-12-13T01:35:20.363Z,25.27
2018-12-13T01:37:48.948Z,26.87
2018-12-13T01:40:17.934Z,29.97
2018-12-13T01:42:46.676Z,33.67
2018-12-13T01:45:15.357Z,23.20
2018-12-13T01:47:45.104Z,27.07
2018-12-13T01:50:13.700Z,32.17
2018-12-13T01:52:42.977Z,30.80
2018-12-13T01:55:11.490Z,27.30
2018-12-13T01:57:40.355Z,27.87
2018-12-13T02:00:09.313Z,27.30
2018-12-13T02:02:38.327Z,30.63
2018-12-13T02:05:07.326Z,27.17
2018-12-13T02:07:36.157Z,28.07
2018-12-13T02:10:05.163Z,26.97
2018-12-13T02:12:33.798Z,30.97
2018-12-13T02:15:02.689Z,26.97
2018-12-13T02:17:31.485Z,24.17
2018-12-13T02:20:00.047Z,24.50
2018-12-13T02:22:28.654Z,24.17
2018-12-13T02:24:57.505Z,22.27
2018-12-13T02:27:26.666Z,25.83
2018-12-13T02:29:55.516Z,24.87
2018-12-13T02:32:25.211Z,24.50
2018-12-13T02:34:54.477Z,22.93
2018-12-13T02:37:23.318Z,24.63
2018-12-13T02:39:52.054Z,22.30
2018-12-13T02:42:21.115Z,20.53
2018-12-13T02:44:50.177Z,25.87
2018-12-13T02:47:19.144Z,22.40
2018-12-13T02:49:47.882Z,24.07
2018-12-13T02:52:16.829Z,22.23
2018-12-13T02:54:45.798Z,22.80
2018-12-13T02:57:14.834Z,20.53
2018-12-13T02:59:44.265Z,18.90
2018-12-13T03:02:13.369Z,21.67
2018-12-13T03:04:42.659Z,20.33
2018-12-13T03:07:13.932Z,23.00
2018-12-13T03:09:42.099Z,20.50
2018-12-13T03:12:11.068Z,19.67
2018-12-13T03:14:40.457Z,23.67
2018-12-13T03:17:10.549Z,25.40
2018-12-13T03:19:39.699Z,23.10
2018-12-13T03:22:09.554Z,22.83
2018-12-13T03:24:38.691Z,24.93
2018-12-13T03:27:07.869Z,21.07
2018-12-13T03:29:37.265Z,20.73
2018-12-13T03:32:06.336Z,22.17
2018-12-13T03:34:35.532Z,23.07
2018-12-13T03:37:04.916Z,22.00
2018-12-13T03:39:33.786Z,21.00
2018-12-13T03:42:02.570Z,22.13
2018-12-13T03:44:31.519Z,23.37
2018-12-13T03:47:00.731Z,22.50
2018-12-13T03:49:29.824Z,21.30
2018-12-13T03:51:58.789Z,22.60
2018-12-13T03:54:27.581Z,21.77
2018-12-13T03:56:57.037Z,20.23
2018-12-13T03:59:26.385Z,20.87
2018-12-13T04:01:55.468Z,23.10
2018-12-13T04:04:25.389Z,20.10
2018-12-13T04:06:54.416Z,20.57
2018-12-13T04:09:23.419Z,23.43
2018-12-13T04:11:52.973Z,21.80
2018-12-13T04:14:22.413Z,23.77
2018-12-13T04:16:51.613Z,24.60
2018-12-13T04:19:20.876Z,24.83
2018-12-13T04:21:51.085Z,20.70
2018-12-13T04:24:20.463Z,22.03
2018-12-13T04:26:50.171Z,25.30
2018-12-13T04:29:19.911Z,20.73
2018-12-13T04:31:49.000Z,21.63
2018-12-13T04:34:18.188Z,20.80
2018-12-13T04:36:47.487Z,21.20
2018-12-13T04:39:17.237Z,23.77
2018-12-13T04:41:45.972Z,17.20
2018-12-13T04:44:15.493Z,19.43
2018-12-13T04:46:44.916Z,14.37
2018-12-13T04:49:14.345Z,17.97
2018-12-13T04:51:43.094Z,17.77
2018-12-13T04:54:12.185Z,17.30
2018-12-13T04:56:42.462Z,17.77
2018-12-13T04:59:11.224Z,14.93
2018-12-13T05:01:40.292Z,17.90
2018-12-13T05:04:13.787Z,14.97
2018-12-13T05:06:43.523Z,13.37
2018-12-13T05:09:12.512Z,11.50
2018-12-13T05:11:41.709Z,14.57
2018-12-13T05:14:10.710Z,14.30
2018-12-13T05:16:39.567Z,12.00
2018-12-13T05:19:08.489Z,14.23
2018-12-13T05:21:37.470Z,13.10
2018-12-13T05:24:06.709Z,10.03
2018-12-13T05:26:35.458Z,12.50
2018-12-13T05:29:04.605Z,13.07
2018-12-13T05:31:33.567Z,10.90
2018-12-13T05:34:02.079Z,11.30
2018-12-13T05:36:30.775Z,12.53
2018-12-13T05:38:59.401Z,11.73
2018-12-13T05:41:28.048Z,13.43
2018-12-13T05:43:57.385Z,10.27
2018-12-13T05:46:26.935Z,14.63
2018-12-13T05:48:55.592Z,13.30
2018-12-13T05:51:24.720Z,9.40
2018-12-13T05:53:53.570Z,11.87
2018-12-13T05:56:22.781Z,9.80
2018-12-13T05:58:51.539Z,9.27
2018-12-13T06:01:21.102Z,10.07
2018-12-13T06:03:49.636Z,9.87
2018-12-13T06:06:18.358Z,11.63
2018-12-13T06:08:47.264Z,8.37
2018-12-13T06:11:16.449Z,12.00
2018-12-13T06:13:45.285Z,11.97
2018-12-13T06:16:13.921Z,12.23
2018-12-13T06:18:42.740Z,12.03
2018-12-13T06:21:11.955Z,10.70
2018-12-13T06:23:40.780Z,12.00
2018-12-13T06:26:09.444Z,12.20
2018-12-13T06:28:38.668Z,14.87
2018-12-13T06:31:09.251Z,14.60
2018-12-13T06:33:38.264Z,14.27
2018-12-13T06:36:07.235Z,15.27
2018-12-13T06:38:36.020Z,18.50
2018-12-13T06:41:04.976Z,16.20
2018-12-13T06:43:34.755Z,19.23
2018-12-13T06:46:03.844Z,17.90
2018-12-13T06:48:32.889Z,18.23
2018-12-13T06:51:02.017Z,17.90
2018-12-13T06:53:31.087Z,16.03
2018-12-13T06:56:00.333Z,18.80
2018-12-13T06:58:29.840Z,15.97
2018-12-13T07:00:58.860Z,15.10
2018-12-13T07:03:27.645Z,16.33
2018-12-13T07:05:56.587Z,13.47
2018-12-13T07:08:25.921Z,13.53
2018-12-13T07:10:54.975Z,17.37
2018-12-13T07:13:24.907Z,13.50
2018-12-13T07:15:54.041Z,15.53
2018-12-13T07:18:22.855Z,14.63
2018-12-13T07:20:51.930Z,14.43
2018-12-13T07:23:21.624Z,15.83
2018-12-13T07:25:50.660Z,16.63
2018-12-13T07:28:19.615Z,13.77
2018-12-13T07:30:48.333Z,15.83
2018-12-13T07:33:17.244Z,13.23
2018-12-13T07:35:46.305Z,14.63
2018-12-13T07:38:15.308Z,15.97
2018-12-13T07:40:44.354Z,14.93
2018-12-13T07:43:13.375Z,14.70
2018-12-13T07:45:42.515Z,14.57
2018-12-13T07:48:11.628Z,15.73
2018-12-13T07:50:41.402Z,13.60
2018-12-13T07:53:10.445Z,11.50
2018-12-13T07:55:39.689Z,12.63
2018-12-13T07:58:08.643Z,13.33
2018-12-13T08:00:38.199Z,11.93
2018-12-13T08:03:06.991Z,11.83
2018-12-13T08:05:35.890Z,13.00
2018-12-13T08:08:05.900Z,10.43
2018-12-13T08:10:34.800Z,9.67
2018-12-13T08:13:04.116Z,11.60
2018-12-13T08:15:33.435Z,10.23
2018-12-13T08:18:02.314Z,9.37
2018-12-13T08:20:31.332Z,8.63
2018-12-13T08:23:00.229Z,7.80
2018-12-13T08:25:29.401Z,9.07
2018-12-13T08:27:58.641Z,9.57
2018-12-13T08:30:28.781Z,9.10
2018-12-13T08:32:58.175Z,8.40
2018-12-13T08:35:27.766Z,9.67
2018-12-13T08:37:56.987Z,8.60
2018-12-13T08:40:26.393Z,8.13
2018-12-13T08:42:55.378Z,9.53
2018-12-13T08:45:24.416Z,7.30
2018-12-13T08:47:53.208Z,8.20
2018-12-13T08:50:21.713Z,6.83
2018-12-13T08:52:50.189Z,9.07
2018-12-13T08:55:18.815Z,7.30
2018-12-13T08:57:47.491Z,6.83
2018-12-13T09:00:16.074Z,8.23
2018-12-13T09:02:45.194Z,8.97
2018-12-13T09:05:13.806Z,9.70
2018-12-13T09:07:42.640Z,7.93
2018-12-13T09:10:11.448Z,7.27
2018-12-13T09:12:40.012Z,8.30
2018-12-13T09:15:08.873Z,8.17
2018-12-13T09:17:37.695Z,8.40
2018-12-13T09:20:06.837Z,7.03
2018-12-13T09:22:35.892Z,8.13
2018-12-13T09:25:04.919Z,7.40
2018-12-13T09:27:33.927Z,8.83
2018-12-13T09:30:03.445Z,7.00
2018-12-13T09:32:32.092Z,8.10
2018-12-13T09:35:00.539Z,9.20
2018-12-13T09:37:29.112Z,7.57
2018-12-13T09:39:58.212Z,6.23
2018-12-13T09:42:26.980Z,7.57
2018-12-13T09:44:55.518Z,6.87
2018-12-13T09:47:24.262Z,8.60
2018-12-13T09:49:52.753Z,7.50
2018-12-13T09:52:21.336Z,8.60
2018-12-13T09:54:49.782Z,8.43
2018-12-13T09:57:18.461Z,9.93
2018-12-13T09:59:47.038Z,7.60
2018-12-13T10:02:15.583Z,8.07
2018-12-13T10:04:44.186Z,6.97
2018-12-13T10:07:12.849Z,8.03
2018-12-13T10:09:41.437Z,7.00
2018-12-13T10:12:09.999Z,8.07
2018-12-13T10:14:38.523Z,6.90
2018-12-13T10:17:07.196Z,6.90
2018-12-13T10:19:35.724Z,7.50
2018-12-13T10:22:04.518Z,7.90
2018-12-13T10:24:33.101Z,7.27
2018-12-13T10:27:01.717Z,6.60
2018-12-13T10:29:30.315Z,6.67
2018-12-13T10:31:59.021Z,8.23
2018-12-13T10:34:27.616Z,10.30
2018-12-13T10:36:56.111Z,5.60
2018-12-13T10:39:24.595Z,6.73
2018-12-13T10:41:53.109Z,6.47
2018-12-13T10:44:26.981Z,10.20
2018-12-13T10:46:57.252Z,7.60
2018-12-13T10:49:26.365Z,7.23
2018-12-13T10:51:55.008Z,8.17
2018-12-13T10:54:23.870Z,6.00
2018-12-13T10:56:52.630Z,9.43
2018-12-13T10:59:21.455Z,6.87
2018-12-13T11:01:55.164Z,8.03
2018-12-13T11:04:23.823Z,7.13
2018-12-13T11:06:52.783Z,6.70
2018-12-13T11:09:22.291Z,10.87
2018-12-13T11:11:50.964Z,6.70
2018-12-13T11:14:19.476Z,5.57
2018-12-13T11:16:47.957Z,6.77
2018-12-13T11:19:16.438Z,11.23
2018-12-13T11:21:45.093Z,6.93
2018-12-13T11:24:13.871Z,7.70
2018-12-13T11:26:42.500Z,7.60
2018-12-13T11:29:22.533Z,7.87
2018-12-13T11:31:51.374Z,8.37
2018-12-13T11:34:20.604Z,8.63
2018-12-13T11:36:49.643Z,6.27
2018-12-13T11:39:18.805Z,7.73
2018-12-13T11:41:47.726Z,7.57
2018-12-13T11:44:16.651Z,6.80
2018-12-13T11:46:45.835Z,7.13
2018-12-13T11:49:14.973Z,9.53
2018-12-13T11:51:44.565Z,7.50
2018-12-13T11:54:30.829Z,6.97
2018-12-13T11:56:59.576Z,6.50
2018-12-13T11:59:28.791Z,12.13
2018-12-13T12:01:58.726Z,8.00
2018-12-13T12:04:27.495Z,8.27
2018-12-13T12:06:56.481Z,7.90
2018-12-13T12:09:25.917Z,7.63
2018-12-13T12:11:55.289Z,6.07
2018-12-13T12:14:23.926Z,7.03
2018-12-13T12:16:52.743Z,10.77
2018-12-13T12:19:21.828Z,7.43
2018-12-13T12:21:50.700Z,7.90
2018-12-13T12:24:20.074Z,6.50
2018-12-13T12:26:49.124Z,8.50
2018-12-13T12:29:17.883Z,6.00
2018-12-13T12:31:46.348Z,9.50
2018-12-13T12:34:14.851Z,6.73
2018-12-13T12:36:43.450Z,6.77
2018-12-13T12:39:11.926Z,8.77
2018-12-13T12:41:40.406Z,7.43
2018-12-13T12:44:08.861Z,6.67
2018-12-13T12:46:37.362Z,6.93
2018-12-13T12:49:06.940Z,8.80
2018-12-13T12:51:35.540Z,10.60
2018-12-13T12:54:03.986Z,7.30
2018-12-13T12:56:32.528Z,7.60
2018-12-13T12:59:00.977Z,6.13
2018-12-13T13:01:29.490Z,5.87
2018-12-13T13:03:58.431Z,7.13
2018-12-13T13:06:27.062Z,5.03
2018-12-13T13:08:56.120Z,6.27
2018-12-13T13:11:24.649Z,6.17
2018-12-13T13:13:53.119Z,5.97
2018-12-13T13:16:21.604Z,5.83
2018-12-13T13:18:50.091Z,6.33
2018-12-13T13:21:18.569Z,6.23
2018-12-13T13:23:47.239Z,7.03
2018-12-13T13:26:15.720Z,6.60
2018-12-13T13:28:44.262Z,4.37
2018-12-13T13:31:12.702Z,7.63
2018-12-13T13:33:41.231Z,5.17
2018-12-13T13:36:09.715Z,7.57
2018-12-13T13:38:38.414Z,9.43
2018-12-13T13:41:07.228Z,6.90
2018-12-13T13:43:35.848Z,8.73
2018-12-13T13:46:04.445Z,6.73
2018-12-13T13:48:32.984Z,6.10
2018-12-13T13:51:01.461Z,9.53
2018-12-13T13:53:29.895Z,6.90
2018-12-13T13:55:58.393Z,8.63
2018-12-13T13:58:26.915Z,6.33
2018-12-13T14:00:55.491Z,5.57
2018-12-13T14:03:24.072Z,6.37
2018-12-13T14:05:52.623Z,7.20
2018-12-13T14:08:21.104Z,5.13
2018-12-13T14:10:49.655Z,6.73
2018-12-13T14:13:18.172Z,5.53
2018-12-13T14:15:46.664Z,4.83
2018-12-13T14:18:15.115Z,10.70
2018-12-13T14:20:43.629Z,6.90
2018-12-13T14:23:12.263Z,5.30
2018-12-13T14:25:40.788Z,5.33
2018-12-13T14:28:09.259Z,3.67
2018-12-13T14:30:45.910Z,7.17
2018-12-13T14:33:15.005Z,7.30
2018-12-13T14:35:43.520Z,8.03
2018-12-13T14:38:11.962Z,5.07
2018-12-13T14:40:40.518Z,5.40
2018-12-13T14:43:08.997Z,5.00
2018-12-13T14:45:37.527Z,10.47
2018-12-13T14:48:05.998Z,8.63
2018-12-13T14:50:34.543Z,12.03
2018-12-13T14:53:03.043Z,10.97
2018-12-13T14:55:32.135Z,6.10
2018-12-13T14:58:00.657Z,5.20
2018-12-13T15:00:30.064Z,4.93
2018-12-13T15:02:58.600Z,3.97
2018-12-13T15:05:27.141Z,8.40
2018-12-13T15:07:56.134Z,4.53
2018-12-13T15:10:24.631Z,6.00
2018-12-13T15:12:53.156Z,6.93
2018-12-13T15:15:21.617Z,6.53
2018-12-13T15:17:50.096Z,4.77
2018-12-13T15:20:18.609Z,9.27
2018-12-13T15:22:47.295Z,5.37
2018-12-13T15:25:15.876Z,6.07
2018-12-13T15:27:44.571Z,8.40
2018-12-13T15:30:13.140Z,7.93
2018-12-13T15:32:41.762Z,6.37
2018-12-13T15:35:10.241Z,8.13
2018-12-13T15:37:38.852Z,8.00
2018-12-13T15:40:07.472Z,6.27
2018-12-13T15:42:35.980Z,7.10
2018-12-13T15:45:05.657Z,7.53
2018-12-13T15:47:35.041Z,6.60
2018-12-13T15:50:03.802Z,8.33
2018-12-13T15:52:32.828Z,8.60
2018-12-13T15:55:01.334Z,7.97
2018-12-13T15:57:29.904Z,9.53
2018-12-13T15:59:58.401Z,8.30
2018-12-13T16:02:26.993Z,7.40
2018-12-13T16:04:55.439Z,7.90
2018-12-13T16:07:23.915Z,12.53
2018-12-13T16:09:52.519Z,7.63
2018-12-13T16:12:20.954Z,7.13
2018-12-13T16:14:49.718Z,8.70
2018-12-13T16:17:18.428Z,8.53
2018-12-13T16:19:46.988Z,7.07
2018-12-13T16:22:15.512Z,6.57
2018-12-13T16:24:44.095Z,8.03
2018-12-13T16:27:13.088Z,10.00
2018-12-13T16:29:41.662Z,8.73
2018-12-13T16:32:10.463Z,8.73
2018-12-13T16:34:38.961Z,7.83
2018-12-13T16:37:07.628Z,9.07
2018-12-13T16:39:37.636Z,9.57
2018-12-13T16:42:06.493Z,7.87
2018-12-13T16:44:35.808Z,9.27
2018-12-13T16:47:04.797Z,9.47
2018-12-13T16:52:13.288Z,8.77
2018-12-13T16:54:42.539Z,9.33
2018-12-13T16:57:11.716Z,9.30
2018-12-13T16:59:40.356Z,12.87
2018-12-13T17:02:09.035Z,11.77
2018-12-13T17:04:37.673Z,12.47
2018-12-13T17:07:06.176Z,14.17
2018-12-13T17:09:34.854Z,15.00
2018-12-13T17:12:03.452Z,12.67
2018-12-13T17:14:32.249Z,13.80
2018-12-13T17:17:00.746Z,11.40
2018-12-13T17:19:29.510Z,13.53
2018-12-13T17:21:58.056Z,14.63
2018-12-13T17:24:26.527Z,13.57
2018-12-13T17:26:55.619Z,12.57
2018-12-13T17:29:24.162Z,13.97
2018-12-13T17:31:52.728Z,13.83
2018-12-13T17:34:21.400Z,19.33
2018-12-13T17:36:50.415Z,17.23
2018-12-13T17:39:19.176Z,14.63
2018-12-13T17:41:47.699Z,16.43
2018-12-13T17:44:16.169Z,16.93
2018-12-13T17:46:45.219Z,16.63
2018-12-13T17:49:13.934Z,13.83
2018-12-13T17:51:42.418Z,14.90
2018-12-13T17:54:10.960Z,15.13
2018-12-13T17:56:39.622Z,14.17
2018-12-13T17:59:08.111Z,14.17
2018-12-13T18:01:36.644Z,14.73
2018-12-13T18:04:05.186Z,13.90
2018-12-13T18:06:33.655Z,15.23
2018-12-13T18:09:02.255Z,15.13
2018-12-13T18:11:30.852Z,18.07
2018-12-13T18:13:59.433Z,19.70
2018-12-13T18:16:27.958Z,15.63
2018-12-13T18:18:57.244Z,17.53
2018-12-13T18:21:26.237Z,22.03
2018-12-13T18:23:54.910Z,19.23
2018-12-13T18:26:23.412Z,19.73
2018-12-13T18:28:51.901Z,15.20
2018-12-13T18:31:20.371Z,20.40
2018-12-13T18:33:48.908Z,19.07
2018-12-13T18:36:17.445Z,18.77
2018-12-13T18:38:46.148Z,14.73
2018-12-13T18:41:14.679Z,16.23
2018-12-13T18:43:43.231Z,18.77
2018-12-13T18:46:11.698Z,20.13
2018-12-13T18:48:40.207Z,17.07
2018-12-13T18:51:08.706Z,16.40
2018-12-13T18:53:37.186Z,21.10
2018-12-13T18:56:05.681Z,18.63
2018-12-13T18:58:34.179Z,18.30
2018-12-13T19:01:02.696Z,18.80
2018-12-13T19:03:31.237Z,16.67
2018-12-13T19:05:59.826Z,15.57
2018-12-13T19:08:28.847Z,17.03
2018-12-13T19:10:57.402Z,17.30
2018-12-13T19:13:26.013Z,17.03
2018-12-13T19:15:54.647Z,18.00
2018-12-13T19:18:23.137Z,17.37
2018-12-13T19:20:51.666Z,19.23
2018-12-13T19:23:20.185Z,21.47
2018-12-13T19:25:48.974Z,18.30
2018-12-13T19:28:17.973Z,25.63
2018-12-13T19:30:46.516Z,20.30
2018-12-13T19:33:14.954Z,17.73
2018-12-13T19:35:43.493Z,20.07
2018-12-13T19:38:13.052Z,18.07
2018-12-13T19:40:41.564Z,22.33
2018-12-13T19:43:10.063Z,17.60
2018-12-13T19:45:38.662Z,19.60
2018-12-13T19:48:07.242Z,20.03
2018-12-13T19:50:35.860Z,18.40
2018-12-13T19:53:04.756Z,19.33
2018-12-13T19:55:33.408Z,19.23
2018-12-13T19:58:01.885Z,17.07
2018-12-13T20:00:30.401Z,25.40
2018-12-13T20:02:58.904Z,20.07
2018-12-13T20:05:27.589Z,19.57
2018-12-13T20:07:56.195Z,15.73
2018-12-13T20:10:25.186Z,19.40
2018-12-13T20:12:54.255Z,18.07
2018-12-13T20:15:24.197Z,16.23
2018-12-13T20:17:53.295Z,19.97
2018-12-13T20:20:21.770Z,18.60
2018-12-13T20:22:50.335Z,19.60
2018-12-13T20:25:18.901Z,19.47
2018-12-13T20:27:47.503Z,21.37
2018-12-13T20:30:16.235Z,17.47
2018-12-13T20:32:44.774Z,21.47
2018-12-13T20:35:13.689Z,21.03
2018-12-13T20:37:42.631Z,19.27
2018-12-13T20:40:11.179Z,20.53
2018-12-13T20:42:39.711Z,22.23
2018-12-13T20:45:15.427Z,20.63
2018-12-13T20:47:44.048Z,22.07
2018-12-13T20:50:12.807Z,21.97
2018-12-13T20:52:41.264Z,16.83
2018-12-13T20:55:10.003Z,16.77
2018-12-13T20:57:38.440Z,18.80
2018-12-13T21:00:09.688Z,21.07
2018-12-13T21:02:44.099Z,17.77
2018-12-13T21:05:12.810Z,22.63
2018-12-13T21:07:41.272Z,15.87
2018-12-13T21:10:10.848Z,20.23
2018-12-13T21:12:39.302Z,20.77
2018-12-13T21:15:08.971Z,18.73
2018-12-13T21:17:37.943Z,16.83
2018-12-13T21:20:06.582Z,19.40
2018-12-13T21:22:35.129Z,18.57
2018-12-13T21:25:03.821Z,22.27
2018-12-13T21:27:32.731Z,19.20
2018-12-13T21:30:02.815Z,18.20
2018-12-13T21:32:31.711Z,19.07
2018-12-13T21:35:00.135Z,21.43
2018-12-13T21:37:28.634Z,20.63
2018-12-13T21:39:57.262Z,18.43
2018-12-13T21:42:26.475Z,21.13
2018-12-13T21:44:55.004Z,18.03
2018-12-13T21:47:23.650Z,16.03
2018-12-13T21:49:52.208Z,19.10
2018-12-13T21:52:20.792Z,20.77
2018-12-13T21:54:49.258Z,19.17
2018-12-13T21:57:18.359Z,17.13
2018-12-13T21:59:46.909Z,20.67
2018-12-13T22:02:15.844Z,18.93
2018-12-13T22:04:44.371Z,21.67
2018-12-13T22:07:12.910Z,20.83
2018-12-13T22:09:41.569Z,21.03
2018-12-13T22:12:10.025Z,21.33
2018-12-13T22:14:38.635Z,22.63
2018-12-13T22:17:07.133Z,22.97
2018-12-13T22:19:35.625Z,18.20
2018-12-13T22:22:04.731Z,19.87
2018-12-13T22:24:33.306Z,19.13
2018-12-13T22:42:56.346Z,20.40
2018-12-13T22:45:24.869Z,21.90
2018-12-13T22:47:53.393Z,22.47
2018-12-13T22:50:22.503Z,17.90
2018-12-13T22:52:51.003Z,18.83
2018-12-13T22:55:19.601Z,19.03
2018-12-13T22:57:48.037Z,23.70
2018-12-13T23:00:16.525Z,21.03
2018-12-13T23:02:45.048Z,21.53
2018-12-13T23:05:13.537Z,20.23
2018-12-13T23:07:41.986Z,25.20
2018-12-13T23:10:10.448Z,22.13
2018-12-13T23:12:38.936Z,25.03
2018-12-13T23:15:07.528Z,21.20
2018-12-13T23:17:36.059Z,21.77
2018-12-13T23:20:05.478Z,21.23
2018-12-13T23:22:33.961Z,25.50
2018-12-13T23:25:02.968Z,23.93
2018-12-13T23:27:31.434Z,21.47
2018-12-13T23:29:59.864Z,24.23
2018-12-13T23:32:28.921Z,21.67
2018-12-13T23:34:57.371Z,24.03
2018-12-13T23:37:25.832Z,22.67
2018-12-13T23:39:54.295Z,25.20
2018-12-13T23:42:22.769Z,20.53
2018-12-13T23:44:51.209Z,24.37
2018-12-13T23:47:19.690Z,24.13
2018-12-13T23:49:48.133Z,22.83
2018-12-13T23:52:16.607Z,26.77
2018-12-13T23:54:45.071Z,23.20
2018-12-13T23:57:13.666Z,22.40
2018-12-13T23:59:42.300Z,25.70
